Time;durP1;ratioP1;P1;durP2;ratioP2;P2;SDS_P1;SDS_P2;PMS_P1;PMS_P2;Temp;Humidity;BMP_temperature;BMP_pressure;BME280_temperature;BME280_humidity;BME280_pressure;Samples;Min_cycle;Max_cycle;Signal;HPM_P1;HPM_P2
2023/07/08 00:01:42;0.00;0.00;0.62;0.00;0.00;0.62;5.90;3.10;;;31.10;22.50;;;;;;2230171;62;20505;-58
2023/07/08 00:04:26;0.00;0.00;0.62;0.00;0.00;0.62;3.80;2.83;;;31.10;22.60;;;;;;2229217;62;20384;-62
2023/07/08 00:07:15;0.00;0.00;0.62;0.00;0.00;0.62;3.20;2.90;;;31.10;23.20;;;;;;2229723;62;20360;-58
2023/07/08 00:10:00;0.00;0.00;0.62;0.00;0.00;0.62;3.43;3.10;;;31.10;22.60;;;;;;2229401;62;20501;-62
2023/07/08 00:12:48;0.00;0.00;0.62;0.00;0.00;0.62;3.50;2.90;;;31.10;22.60;;;;;;2226064;62;20372;-60
2023/07/08 00:15:35;0.00;0.00;0.62;0.00;0.00;0.62;3.20;2.90;;;31.10;22.60;;;;;;2229838;62;20372;-62
2023/07/08 00:18:19;0.00;0.00;0.62;0.00;0.00;0.62;3.90;3.50;;;31.10;22.60;;;;;;2229802;62;20384;-62
2023/07/08 00:21:09;0.00;0.00;0.62;0.00;0.00;0.62;5.10;3.60;;;31.10;22.60;;;;;;2229164;62;20380;-60
2023/07/08 00:23:55;0.00;0.00;0.62;0.00;0.00;0.62;3.20;2.90;;;31.10;22.60;;;;;;2229876;62;20388;-61
2023/07/08 00:26:40;0.00;0.00;0.62;0.00;0.00;0.62;3.70;3.30;;;31.10;22.70;;;;;;2225718;62;20845;-62
2023/07/08 00:29:24;0.00;0.00;0.62;0.00;0.00;0.62;3.37;3.07;;;31.10;22.70;;;;;;2229137;62;20867;-61
2023/07/08 00:32:15;0.00;0.00;0.62;0.00;0.00;0.62;3.00;2.70;;;31.10;22.70;;;;;;2229929;62;20368;-61
2023/07/08 00:35:00;0.00;0.00;0.62;0.00;0.00;0.62;3.47;3.00;;;31.00;22.70;;;;;;2229068;62;20417;-59
2023/07/08 00:37:46;0.00;0.00;0.62;0.00;0.00;0.62;3.83;3.17;;;31.00;22.70;;;;;;2226344;62;20369;-61
2023/07/08 00:40:33;0.00;0.00;0.62;0.00;0.00;0.62;2.80;2.53;;;31.00;22.70;;;;;;2229291;62;20368;-59
2023/07/08 00:43:22;0.00;0.00;0.62;0.00;0.00;0.62;3.80;3.50;;;31.00;22.70;;;;;;2229179;62;20368;-62
2023/07/08 00:46:29;0.00;0.00;0.62;0.00;0.00;0.62;3.30;2.97;;;31.00;22.70;;;;;;2229742;62;20368;-62
2023/07/08 00:49:29;0.00;0.00;0.62;0.00;0.00;0.62;3.47;3.17;;;31.00;22.70;;;;;;2228676;62;20447;-60
2023/07/08 00:52:20;0.00;0.00;0.62;0.00;0.00;0.62;4.30;3.63;;;31.00;22.70;;;;;;2229815;62;20452;-60
2023/07/08 00:55:09;0.00;0.00;0.62;0.00;0.00;0.62;3.67;2.93;;;31.00;22.70;;;;;;2226745;62;20424;-59
2023/07/08 00:57:53;0.00;0.00;0.62;0.00;0.00;0.62;3.30;3.00;;;31.00;22.70;;;;;;2226347;62;20886;-59
2023/07/08 01:00:38;0.00;0.00;0.62;0.00;0.00;0.62;3.17;2.87;;;31.00;22.70;;;;;;2226391;62;20372;-58
2023/07/08 01:03:24;0.00;0.00;0.62;0.00;0.00;0.62;3.20;2.90;;;31.00;22.70;;;;;;2226038;62;20372;-60
2023/07/08 01:06:10;0.00;0.00;0.62;0.00;0.00;0.62;3.03;2.70;;;31.00;22.70;;;;;;2229662;62;20429;-60
2023/07/08 01:08:56;0.00;0.00;0.62;0.00;0.00;0.62;3.83;3.27;;;31.00;22.70;;;;;;2226022;62;20396;-60
2023/07/08 01:11:41;0.00;0.00;0.62;0.00;0.00;0.62;3.37;3.07;;;31.00;22.70;;;;;;2225762;62;20364;-61
2023/07/08 01:14:31;0.00;0.00;0.62;0.00;0.00;0.62;3.57;2.73;;;30.90;22.70;;;;;;2229808;62;20827;-62
2023/07/08 01:17:16;0.00;0.00;0.62;0.00;0.00;0.62;3.10;2.80;;;31.00;22.70;;;;;;2230199;62;20411;-61
2023/07/08 01:20:05;0.00;0.00;0.62;0.00;0.00;0.62;3.77;2.80;;;30.90;22.70;;;;;;2229265;62;20933;-60
2023/07/08 01:22:51;0.00;0.00;0.62;0.00;0.00;0.62;2.97;2.70;;;30.90;22.70;;;;;;2230415;62;20454;-61
2023/07/08 01:25:37;0.00;0.00;0.62;0.00;0.00;0.62;2.97;2.67;;;30.90;22.70;;;;;;2229752;62;20408;-58
2023/07/08 01:28:22;0.00;0.00;0.62;0.00;0.00;0.62;3.27;2.97;;;30.90;22.70;;;;;;2229910;62;21317;-60
2023/07/08 01:31:07;0.00;0.00;0.62;0.00;0.00;0.62;3.77;3.00;;;30.90;22.70;;;;;;2230383;62;20371;-61
2023/07/08 01:33:53;0.00;0.00;0.62;0.00;0.00;0.62;3.07;2.73;;;30.90;22.70;;;;;;2226500;62;20421;-61
2023/07/08 01:36:44;0.00;0.00;0.62;0.00;0.00;0.62;3.00;2.70;;;30.90;22.70;;;;;;2230557;62;20368;-62
2023/07/08 01:39:31;0.00;0.00;0.62;0.00;0.00;0.62;2.93;2.63;;;30.90;22.70;;;;;;2229987;62;20489;-61
2023/07/08 01:42:16;0.00;0.00;0.62;0.00;0.00;0.62;3.03;2.53;;;30.90;22.70;;;;;;2229661;62;20424;-61
2023/07/08 01:45:01;0.00;0.00;0.62;0.00;0.00;0.62;2.83;2.63;;;30.90;22.70;;;;;;2229973;62;20451;-60
2023/07/08 01:47:52;0.00;0.00;0.62;0.00;0.00;0.62;3.30;3.00;;;30.90;22.70;;;;;;2229841;62;20483;-61
2023/07/08 01:50:42;0.00;0.00;0.62;0.00;0.00;0.62;3.90;2.90;;;30.90;22.70;;;;;;2229664;62;20425;-60
2023/07/08 01:53:33;0.00;0.00;0.62;0.00;0.00;0.62;3.57;2.60;;;30.80;22.70;;;;;;2229576;62;20389;-59
2023/07/08 01:56:19;0.00;0.00;0.62;0.00;0.00;0.62;3.10;2.80;;;30.90;22.70;;;;;;2226329;62;20460;-58
2023/07/08 01:59:03;0.00;0.00;0.62;0.00;0.00;0.62;3.10;2.80;;;30.80;22.70;;;;;;2226476;62;20986;-60
2023/07/08 02:01:49;0.00;0.00;0.62;0.00;0.00;0.62;2.60;2.23;;;30.90;22.70;;;;;;2227212;62;20367;-62
2023/07/08 02:04:34;0.00;0.00;0.62;0.00;0.00;0.62;3.33;2.70;;;30.80;22.70;;;;;;2229905;62;20932;-60
2023/07/08 02:07:18;0.00;0.00;0.62;0.00;0.00;0.62;2.97;2.70;;;30.80;22.70;;;;;;2229912;62;20417;-61
2023/07/08 02:10:05;0.00;0.00;0.62;0.00;0.00;0.62;2.73;2.47;;;30.80;22.70;;;;;;2229279;62;20368;-60
2023/07/08 02:12:51;0.00;0.00;0.62;0.00;0.00;0.62;2.73;2.53;;;30.80;22.70;;;;;;2230030;62;20782;-59
2023/07/08 02:15:35;0.00;0.00;0.62;0.00;0.00;0.62;3.23;2.80;;;30.80;22.70;;;;;;2226981;62;20376;-59
2023/07/08 02:18:20;0.00;0.00;0.62;0.00;0.00;0.62;4.80;2.70;;;30.80;22.70;;;;;;2229121;62;20946;-60
2023/07/08 02:21:05;0.00;0.00;0.62;0.00;0.00;0.62;3.03;2.47;;;30.80;22.70;;;;;;2230215;62;20441;-60
2023/07/08 02:23:52;0.00;0.00;0.62;0.00;0.00;0.62;4.03;2.47;;;30.80;22.70;;;;;;2230041;62;20416;-60
2023/07/08 02:26:37;0.00;0.00;0.62;0.00;0.00;0.62;4.10;3.07;;;30.80;22.70;;;;;;2229435;62;20436;-59
2023/07/08 02:29:23;0.00;0.00;0.62;0.00;0.00;0.62;2.93;2.63;;;30.80;22.70;;;;;;2229595;62;20412;-61
2023/07/08 02:32:12;0.00;0.00;0.62;0.00;0.00;0.62;3.10;2.60;;;30.80;22.70;;;;;;2229946;62;20368;-61
2023/07/08 02:34:58;0.00;0.00;0.62;0.00;0.00;0.62;2.90;2.40;;;30.80;22.70;;;;;;2226621;62;20427;-58
2023/07/08 02:37:43;0.00;0.00;0.62;0.00;0.00;0.62;2.77;2.53;;;30.70;22.70;;;;;;2229726;62;20448;-59
2023/07/08 02:40:27;0.00;0.00;0.62;0.00;0.00;0.62;3.00;2.70;;;30.70;22.70;;;;;;2228694;62;20851;-60
2023/07/08 02:43:13;0.00;0.00;0.62;0.00;0.00;0.62;3.43;2.60;;;30.70;22.70;;;;;;2226725;62;20970;-61
2023/07/08 02:45:59;0.00;0.00;0.62;0.00;0.00;0.62;3.10;2.80;;;30.70;22.70;;;;;;2229986;62;20836;-60
2023/07/08 02:48:44;0.00;0.00;0.62;0.00;0.00;0.62;3.13;2.83;;;30.70;22.70;;;;;;2228851;62;20479;-61
2023/07/08 02:51:30;0.00;0.00;0.62;0.00;0.00;0.62;2.40;2.20;;;30.70;22.70;;;;;;2226962;62;20367;-60
2023/07/08 02:54:15;0.00;0.00;0.62;0.00;0.00;0.62;2.90;2.60;;;30.70;22.70;;;;;;2226475;62;20449;-61
2023/07/08 02:57:00;0.00;0.00;0.62;0.00;0.00;0.62;2.37;2.17;;;30.70;22.70;;;;;;2229635;62;20368;-58
2023/07/08 02:59:44;0.00;0.00;0.62;0.00;0.00;0.62;2.40;2.20;;;30.70;22.70;;;;;;2226548;62;20795;-59
2023/07/08 03:02:30;0.00;0.00;0.62;0.00;0.00;0.62;3.13;2.37;;;30.70;22.70;;;;;;2226155;62;20372;-60
2023/07/08 03:05:16;0.00;0.00;0.62;0.00;0.00;0.62;4.00;3.00;;;30.70;22.70;;;;;;2230160;62;20485;-59
2023/07/08 03:08:00;0.00;0.00;0.62;0.00;0.00;0.62;3.23;2.63;;;30.70;22.70;;;;;;2226743;62;20930;-61
2023/07/08 03:10:47;0.00;0.00;0.62;0.00;0.00;0.62;2.50;2.30;;;30.70;22.70;;;;;;2226269;62;20403;-60
2023/07/08 03:13:33;0.00;0.00;0.62;0.00;0.00;0.62;2.83;2.47;;;30.70;22.80;;;;;;2230023;62;21007;-61
2023/07/08 03:16:19;0.00;0.00;0.62;0.00;0.00;0.62;6.07;3.23;;;30.60;22.70;;;;;;2226229;62;20376;-60
2023/07/08 03:19:05;0.00;0.00;0.62;0.00;0.00;0.62;3.20;2.90;;;30.60;22.70;;;;;;2229170;62;20381;-59
2023/07/08 03:21:50;0.00;0.00;0.62;0.00;0.00;0.62;2.67;2.30;;;30.60;22.70;;;;;;2226797;62;20368;-58
2023/07/08 03:24:34;0.00;0.00;0.62;0.00;0.00;0.62;3.33;2.80;;;30.60;22.80;;;;;;2229001;62;20387;-60
2023/07/08 03:27:21;0.00;0.00;0.62;0.00;0.00;0.62;2.97;2.70;;;30.60;22.80;;;;;;2226938;62;20444;-60
2023/07/08 03:30:09;0.00;0.00;0.62;0.00;0.00;0.62;3.40;2.40;;;30.60;22.80;;;;;;2226356;62;20368;-60
2023/07/08 03:32:54;0.00;0.00;0.62;0.00;0.00;0.62;2.63;2.40;;;30.60;22.80;;;;;;2226010;62;20375;-58
2023/07/08 03:35:41;0.00;0.00;0.62;0.00;0.00;0.62;2.90;2.60;;;30.60;22.80;;;;;;2227106;62;20384;-60
2023/07/08 03:38:26;0.00;0.00;0.62;0.00;0.00;0.62;3.00;2.70;;;30.60;22.80;;;;;;2229086;62;20365;-60
2023/07/08 03:41:11;0.00;0.00;0.62;0.00;0.00;0.62;2.53;2.33;;;30.60;22.80;;;;;;2226351;62;20499;-59
2023/07/08 03:43:55;0.00;0.00;0.62;0.00;0.00;0.62;3.07;2.77;;;30.60;22.80;;;;;;2229924;62;20392;-59
2023/07/08 03:46:40;0.00;0.00;0.62;0.00;0.00;0.62;3.23;2.83;;;30.60;22.80;;;;;;2226071;62;20380;-61
2023/07/08 03:49:25;0.00;0.00;0.62;0.00;0.00;0.62;3.27;2.97;;;30.60;22.80;;;;;;2229403;62;20399;-60
2023/07/08 03:52:17;0.00;0.00;0.62;0.00;0.00;0.62;3.90;2.90;;;30.50;22.70;;;;;;2226640;62;20587;-59
2023/07/08 03:55:04;0.00;0.00;0.62;0.00;0.00;0.62;2.90;2.60;;;30.50;22.70;;;;;;2226045;62;20826;-61
2023/07/08 03:57:49;0.00;0.00;0.62;0.00;0.00;0.62;3.43;2.70;;;30.50;22.70;;;;;;2226902;62;20424;-59
2023/07/08 04:00:35;0.00;0.00;0.62;0.00;0.00;0.62;2.97;2.67;;;30.50;22.80;;;;;;2226102;62;20368;-60
2023/07/08 04:03:21;0.00;0.00;0.62;0.00;0.00;0.62;4.37;2.93;;;30.50;22.80;;;;;;2226208;62;20784;-59
2023/07/08 04:06:05;0.00;0.00;0.62;0.00;0.00;0.62;2.73;2.30;;;30.50;22.80;;;;;;2226599;62;20923;-60
2023/07/08 04:08:52;0.00;0.00;0.62;0.00;0.00;0.62;3.13;2.87;;;30.50;22.80;;;;;;2228549;62;20400;-59
2023/07/08 04:11:36;0.00;0.00;0.62;0.00;0.00;0.62;3.07;2.77;;;30.50;22.80;;;;;;2230055;62;20927;-60
2023/07/08 04:14:21;0.00;0.00;0.62;0.00;0.00;0.62;3.13;2.83;;;30.50;22.80;;;;;;2229733;62;20384;-59
2023/07/08 04:17:07;0.00;0.00;0.62;0.00;0.00;0.62;3.40;3.10;;;30.50;22.80;;;;;;2228970;62;20372;-65
2023/07/08 04:19:52;0.00;0.00;0.62;0.00;0.00;0.62;3.30;3.00;;;30.50;22.80;;;;;;2226222;62;20779;-61
2023/07/08 04:22:37;0.00;0.00;0.62;0.00;0.00;0.62;3.40;2.83;;;30.50;22.80;;;;;;2229773;62;20401;-61
2023/07/08 04:25:24;0.00;0.00;0.62;0.00;0.00;0.62;3.40;3.10;;;30.50;22.80;;;;;;2229621;62;20500;-61
2023/07/08 04:28:09;0.00;0.00;0.62;0.00;0.00;0.62;3.30;3.00;;;30.50;22.90;;;;;;2229782;62;20938;-61
2023/07/08 04:30:54;0.00;0.00;0.62;0.00;0.00;0.62;3.33;3.03;;;30.50;22.90;;;;;;2229108;62;20383;-60
2023/07/08 04:33:38;0.00;0.00;0.62;0.00;0.00;0.62;3.20;2.87;;;30.50;23.40;;;;;;2229722;62;20557;-61
2023/07/08 04:36:24;0.00;0.00;0.62;0.00;0.00;0.62;3.57;3.27;;;30.50;22.90;;;;;;2229707;62;20424;-61
2023/07/08 04:39:10;0.00;0.00;0.62;0.00;0.00;0.62;3.73;3.40;;;30.50;22.90;;;;;;2228448;62;20931;-61
2023/07/08 04:41:57;0.00;0.00;0.62;0.00;0.00;0.62;3.67;3.30;;;30.50;22.90;;;;;;2229770;62;20367;-60
2023/07/08 04:44:42;0.00;0.00;0.62;0.00;0.00;0.62;3.47;3.17;;;30.50;22.90;;;;;;2229820;62;20400;-57
2023/07/08 04:47:29;0.00;0.00;0.62;0.00;0.00;0.62;3.20;2.90;;;30.50;22.90;;;;;;2229576;62;20446;-61
2023/07/08 04:50:14;0.00;0.00;0.62;0.00;0.00;0.62;3.67;3.37;;;30.40;22.90;;;;;;2229134;62;20934;-60
2023/07/08 04:52:58;0.00;0.00;0.62;0.00;0.00;0.62;3.20;2.90;;;30.40;22.90;;;;;;2230098;62;20371;-61
2023/07/08 04:55:45;0.00;0.00;0.62;0.00;0.00;0.62;3.40;3.10;;;30.40;23.40;;;;;;2230467;62;20364;-59
2023/07/08 04:58:30;0.00;0.00;0.62;0.00;0.00;0.62;3.93;3.10;;;30.40;22.90;;;;;;2229990;62;20368;-59
2023/07/08 05:01:15;0.00;0.00;0.62;0.00;0.00;0.62;3.40;3.10;;;30.40;22.90;;;;;;2229654;62;20372;-61
2023/07/08 05:04:01;0.00;0.00;0.62;0.00;0.00;0.62;3.37;3.00;;;30.40;22.90;;;;;;2230383;62;20839;-60
2023/07/08 05:06:46;0.00;0.00;0.62;0.00;0.00;0.62;3.63;2.90;;;30.40;22.90;;;;;;2230543;62;20376;-60
2023/07/08 05:09:31;0.00;0.00;0.62;0.00;0.00;0.62;3.30;3.00;;;30.40;22.90;;;;;;2229462;62;20400;-60
2023/07/08 05:12:16;0.00;0.00;0.62;0.00;0.00;0.62;3.80;3.07;;;30.40;22.90;;;;;;2230277;62;20376;-59
2023/07/08 05:15:03;0.00;0.00;0.62;0.00;0.00;0.62;4.37;3.43;;;30.40;22.90;;;;;;2229801;62;20570;-59
2023/07/08 05:17:51;0.00;0.00;0.62;0.00;0.00;0.62;3.20;2.90;;;30.40;23.00;;;;;;2230343;62;20428;-60
2023/07/08 05:20:36;0.00;0.00;0.62;0.00;0.00;0.62;3.27;2.97;;;30.40;22.90;;;;;;2229292;62;20845;-60
2023/07/08 05:23:21;0.00;0.00;0.62;0.00;0.00;0.62;3.30;3.00;;;30.40;23.00;;;;;;2229629;62;20416;-59
2023/07/08 05:26:07;0.00;0.00;0.62;0.00;0.00;0.62;3.63;3.33;;;30.40;23.00;;;;;;2229878;62;20386;-61
2023/07/08 05:28:52;0.00;0.00;0.62;0.00;0.00;0.62;3.57;3.27;;;30.40;23.00;;;;;;2229979;62;20404;-61
2023/07/08 05:31:38;0.00;0.00;0.62;0.00;0.00;0.62;3.53;3.10;;;30.40;23.00;;;;;;2229725;62;20369;-60
2023/07/08 05:34:23;0.00;0.00;0.62;0.00;0.00;0.62;5.13;2.80;;;30.40;23.00;;;;;;2227204;62;20396;-60
2023/07/08 05:37:07;0.00;0.00;0.62;0.00;0.00;0.62;3.70;3.27;;;30.40;23.00;;;;;;2226982;62;20858;-59
2023/07/08 05:39:52;0.00;0.00;0.62;0.00;0.00;0.62;2.70;2.50;;;30.40;23.00;;;;;;2229240;62;20460;-60
2023/07/08 05:42:37;0.00;0.00;0.62;0.00;0.00;0.62;3.13;2.83;;;30.40;23.00;;;;;;2230340;62;20876;-59
2023/07/08 05:45:21;0.00;0.00;0.62;0.00;0.00;0.62;3.30;3.00;;;30.40;23.00;;;;;;2229374;62;20400;-60
2023/07/08 05:48:08;0.00;0.00;0.62;0.00;0.00;0.62;3.73;3.30;;;30.40;23.00;;;;;;2230221;62;20666;-59
2023/07/08 05:50:54;0.00;0.00;0.62;0.00;0.00;0.62;3.00;2.70;;;30.40;23.00;;;;;;2230518;62;20392;-59
2023/07/08 05:53:38;0.00;0.00;0.62;0.00;0.00;0.62;3.10;2.80;;;30.40;23.00;;;;;;2229627;62;20718;-61
2023/07/08 05:56:23;0.00;0.00;0.62;0.00;0.00;0.62;3.63;3.33;;;30.40;23.10;;;;;;2227054;62;20867;-59
2023/07/08 05:59:07;0.00;0.00;0.62;0.00;0.00;0.62;4.13;3.40;;;30.40;23.00;;;;;;2229663;62;20490;-61
2023/07/08 06:01:52;0.00;0.00;0.62;0.00;0.00;0.62;3.07;2.77;;;30.40;23.10;;;;;;2230027;62;20401;-61
2023/07/08 06:04:38;0.00;0.00;0.62;0.00;0.00;0.62;3.10;2.80;;;30.40;23.10;;;;;;2230314;62;20409;-61
2023/07/08 06:07:23;0.00;0.00;0.62;0.00;0.00;0.62;3.10;2.80;;;30.40;23.10;;;;;;2229397;62;20368;-59
2023/07/08 06:10:08;0.00;0.00;0.62;0.00;0.00;0.62;2.60;2.40;;;30.40;23.10;;;;;;2229714;62;20864;-61
2023/07/08 06:12:53;0.00;0.00;0.62;0.00;0.00;0.62;3.33;3.03;;;30.40;23.60;;;;;;2230063;62;20375;-62
2023/07/08 06:15:38;0.00;0.00;0.62;0.00;0.00;0.62;4.27;3.30;;;30.40;23.10;;;;;;2229273;62;20821;-60
2023/07/08 06:18:23;0.00;0.00;0.62;0.00;0.00;0.62;3.43;3.13;;;30.40;23.10;;;;;;2229814;62;20417;-60
2023/07/08 06:21:09;0.00;0.00;0.62;0.00;0.00;0.62;3.90;3.30;;;30.40;23.10;;;;;;2229676;62;20428;-61
2023/07/08 06:23:54;0.00;0.00;0.62;0.00;0.00;0.62;3.37;3.07;;;30.40;23.10;;;;;;2229836;62;20404;-61
2023/07/08 06:26:39;0.00;0.00;0.62;0.00;0.00;0.62;3.40;3.10;;;30.40;23.10;;;;;;2230010;62;20404;-60
2023/07/08 06:29:24;0.00;0.00;0.62;0.00;0.00;0.62;3.30;2.97;;;30.40;23.10;;;;;;2228783;62;20403;-61
2023/07/08 06:32:09;0.00;0.00;0.62;0.00;0.00;0.62;4.63;3.10;;;30.40;23.10;;;;;;2230390;62;20408;-61
2023/07/08 06:34:54;0.00;0.00;0.62;0.00;0.00;0.62;3.27;2.97;;;30.40;23.10;;;;;;2230241;62;20391;-60
2023/07/08 06:37:40;0.00;0.00;0.62;0.00;0.00;0.62;3.43;3.13;;;30.40;23.10;;;;;;2229388;62;20368;-60
2023/07/08 06:40:25;0.00;0.00;0.62;0.00;0.00;0.62;3.77;3.37;;;30.40;23.10;;;;;;2230050;62;20643;-61
2023/07/08 06:43:09;0.00;0.00;0.62;0.00;0.00;0.62;3.40;3.10;;;30.40;23.10;;;;;;2229825;62;20396;-61
2023/07/08 06:46:06;0.00;0.00;0.62;0.00;0.00;0.62;3.30;2.90;;;30.40;23.10;;;;;;2226837;62;20770;-61
2023/07/08 06:48:51;0.00;0.00;0.62;0.00;0.00;0.62;3.20;2.90;;;30.40;23.10;;;;;;2229701;62;20962;-58
2023/07/08 06:51:36;0.00;0.00;0.62;0.00;0.00;0.62;4.60;3.10;;;30.40;23.10;;;;;;2229253;62;20944;-57
2023/07/08 06:54:22;0.00;0.00;0.62;0.00;0.00;0.62;3.60;3.30;;;30.40;23.10;;;;;;2230015;62;20392;-59
2023/07/08 06:57:07;0.00;0.00;0.62;0.00;0.00;0.62;3.60;2.70;;;30.40;23.10;;;;;;2229843;62;20408;-61
2023/07/08 06:59:51;0.00;0.00;0.62;0.00;0.00;0.62;3.40;3.10;;;30.40;23.10;;;;;;2228906;62;20368;-62
2023/07/08 07:02:36;0.00;0.00;0.62;0.00;0.00;0.62;3.83;3.33;;;30.40;23.10;;;;;;2230014;62;20778;-60
2023/07/08 07:05:21;0.00;0.00;0.62;0.00;0.00;0.62;3.07;2.77;;;30.40;23.20;;;;;;2230124;62;20384;-61
2023/07/08 07:08:07;0.00;0.00;0.62;0.00;0.00;0.62;3.40;3.10;;;30.40;23.10;;;;;;2229730;62;20388;-61
2023/07/08 07:10:53;0.00;0.00;0.62;0.00;0.00;0.62;3.50;3.20;;;30.40;23.10;;;;;;2230091;62;20381;-59
2023/07/08 07:13:38;0.00;0.00;0.62;0.00;0.00;0.62;3.53;2.80;;;30.40;23.70;;;;;;2229508;62;20946;-60
2023/07/08 07:16:23;0.00;0.00;0.62;0.00;0.00;0.62;4.00;3.50;;;30.40;23.20;;;;;;2230463;62;20416;-59
2023/07/08 07:19:08;0.00;0.00;0.62;0.00;0.00;0.62;3.33;3.03;;;30.40;23.80;;;;;;2229895;62;20484;-58
2023/07/08 07:21:52;0.00;0.00;0.62;0.00;0.00;0.62;3.37;3.07;;;30.40;23.20;;;;;;2229611;62;20604;-60
2023/07/08 07:24:37;0.00;0.00;0.62;0.00;0.00;0.62;3.30;3.00;;;30.40;23.20;;;;;;2230288;62;20410;-59
2023/07/08 07:27:23;0.00;0.00;0.62;0.00;0.00;0.62;4.20;3.10;;;30.40;23.20;;;;;;2230181;62;20372;-57
2023/07/08 07:30:12;0.00;0.00;0.62;0.00;0.00;0.62;3.37;3.00;;;30.40;23.70;;;;;;2229240;62;20488;-57
2023/07/08 07:32:59;0.00;0.00;0.62;0.00;0.00;0.62;3.40;3.10;;;30.50;23.30;;;;;;2230307;62;20430;-57
2023/07/08 07:35:45;0.00;0.00;0.62;0.00;0.00;0.62;3.33;3.03;;;30.40;23.20;;;;;;2230139;62;20372;-60
2023/07/08 07:38:32;0.00;0.00;0.62;0.00;0.00;0.62;3.37;3.07;;;30.50;23.30;;;;;;2230050;62;20387;-59
2023/07/08 07:41:17;0.00;0.00;0.62;0.00;0.00;0.62;3.10;2.80;;;30.50;23.30;;;;;;2230455;62;20370;-57
2023/07/08 07:44:03;0.00;0.00;0.62;0.00;0.00;0.62;3.40;3.10;;;30.50;23.30;;;;;;2229296;62;20412;-58
2023/07/08 07:46:48;0.00;0.00;0.62;0.00;0.00;0.62;3.20;2.90;;;30.50;23.30;;;;;;2230331;62;20380;-59
2023/07/08 07:49:33;0.00;0.00;0.62;0.00;0.00;0.62;3.30;3.00;;;30.50;23.30;;;;;;2229704;62;20391;-59
2023/07/08 07:52:23;0.00;0.00;0.62;0.00;0.00;0.62;3.60;3.30;;;30.50;23.30;;;;;;2230101;62;20428;-58
2023/07/08 07:55:09;0.00;0.00;0.62;0.00;0.00;0.62;3.63;3.33;;;30.50;23.30;;;;;;2229944;62;20434;-60
2023/07/08 07:57:53;0.00;0.00;0.62;0.00;0.00;0.62;3.67;3.37;;;30.50;23.30;;;;;;2229788;62;20390;-60
2023/07/08 08:00:39;0.00;0.00;0.62;0.00;0.00;0.62;3.20;2.90;;;30.50;23.80;;;;;;2229758;62;20458;-61
2023/07/08 08:03:25;0.00;0.00;0.62;0.00;0.00;0.62;3.00;2.70;;;30.50;23.30;;;;;;2230340;62;20399;-59
2023/07/08 08:06:10;0.00;0.00;0.62;0.00;0.00;0.62;3.70;3.40;;;30.50;23.30;;;;;;2229478;62;20446;-57
2023/07/08 08:08:56;0.00;0.00;0.62;0.00;0.00;0.62;3.43;3.13;;;30.50;23.30;;;;;;2229877;62;20843;-59
2023/07/08 08:11:41;0.00;0.00;0.62;0.00;0.00;0.62;3.00;2.70;;;30.50;23.30;;;;;;2230248;62;20372;-56
2023/07/08 08:14:25;0.00;0.00;0.62;0.00;0.00;0.62;3.57;3.13;;;30.50;23.40;;;;;;2229446;62;20967;-59
2023/07/08 08:17:11;0.00;0.00;0.62;0.00;0.00;0.62;4.80;3.20;;;30.50;23.40;;;;;;2230162;62;20364;-57
2023/07/08 08:19:56;0.00;0.00;0.62;0.00;0.00;0.62;3.37;2.93;;;30.50;23.40;;;;;;2229878;62;20393;-60
2023/07/08 08:22:40;0.00;0.00;0.62;0.00;0.00;0.62;4.17;3.20;;;30.50;23.40;;;;;;2229914;62;20411;-56
2023/07/08 08:25:25;0.00;0.00;0.62;0.00;0.00;0.62;3.60;3.20;;;30.50;23.40;;;;;;2230184;62;20388;-62
2023/07/08 08:28:10;0.00;0.00;0.62;0.00;0.00;0.62;3.40;2.93;;;30.50;23.40;;;;;;2229806;62;20392;-61
2023/07/08 08:30:55;0.00;0.00;0.62;0.00;0.00;0.62;4.10;2.93;;;30.50;23.40;;;;;;2230806;62;20428;-61
2023/07/08 08:33:42;0.00;0.00;0.62;0.00;0.00;0.62;3.40;3.10;;;30.50;23.40;;;;;;2230628;62;20480;-62
2023/07/08 08:36:27;0.00;0.00;0.62;0.00;0.00;0.62;3.50;3.20;;;30.50;23.40;;;;;;2229904;62;20392;-62
2023/07/08 08:39:11;0.00;0.00;0.62;0.00;0.00;0.62;3.20;2.77;;;30.50;24.00;;;;;;2230335;62;20368;-62
2023/07/08 08:41:57;0.00;0.00;0.62;0.00;0.00;0.62;3.23;2.93;;;30.50;23.50;;;;;;2230437;62;20393;-61
2023/07/08 08:44:44;0.00;0.00;0.62;0.00;0.00;0.62;2.77;2.50;;;30.50;23.40;;;;;;2230129;62;20387;-62
2023/07/08 08:47:39;0.00;0.00;0.62;0.00;0.00;0.62;3.40;3.10;;;30.50;23.50;;;;;;2230577;62;20902;-62
2023/07/08 08:50:43;0.00;0.00;0.62;0.00;0.00;0.62;4.07;3.67;;;30.60;23.50;;;;;;2228727;62;20376;-62
2023/07/08 08:53:28;0.00;0.00;0.62;0.00;0.00;0.62;2.23;2.03;;;30.60;23.50;;;;;;2229564;62;20447;-61
2023/07/08 08:56:20;0.00;0.00;0.62;0.00;0.00;0.62;3.43;3.13;;;30.60;23.50;;;;;;2228295;62;20428;-61
2023/07/08 08:59:15;0.00;0.00;0.62;0.00;0.00;0.62;3.77;3.37;;;30.60;23.50;;;;;;2227981;62;20364;-58
2023/07/08 09:02:01;0.00;0.00;0.62;0.00;0.00;0.62;4.47;3.30;;;30.60;23.60;;;;;;2228780;62;21011;-59
2023/07/08 09:04:45;0.00;0.00;0.62;0.00;0.00;0.62;3.60;3.30;;;30.60;23.60;;;;;;2228004;62;20443;-58
2023/07/08 09:07:34;0.00;0.00;0.62;0.00;0.00;0.62;3.93;3.27;;;30.60;23.50;;;;;;2228884;62;20368;-60
2023/07/08 09:10:31;0.00;0.00;0.62;0.00;0.00;0.62;3.00;2.70;;;30.60;23.60;;;;;;2228432;62;20381;-58
2023/07/08 09:13:25;0.00;0.00;0.62;0.00;0.00;0.62;3.30;3.00;;;30.60;23.60;;;;;;2227982;62;20368;-59
2023/07/08 09:16:25;0.00;0.00;0.62;0.00;0.00;0.62;3.77;3.37;;;30.60;23.60;;;;;;2228913;62;20379;-61
2023/07/08 09:19:14;0.00;0.00;0.62;0.00;0.00;0.62;3.17;2.87;;;30.60;23.70;;;;;;2227966;62;20922;-60
2023/07/08 09:22:04;0.00;0.00;0.62;0.00;0.00;0.62;3.60;3.30;;;30.60;23.70;;;;;;2229269;62;20468;-61
2023/07/08 09:24:54;0.00;0.00;0.62;0.00;0.00;0.62;3.17;2.83;;;30.60;23.70;;;;;;2228601;62;20392;-59
2023/07/08 09:27:39;0.00;0.00;0.62;0.00;0.00;0.62;2.87;2.60;;;30.60;23.70;;;;;;2227981;62;20404;-58
2023/07/08 09:30:24;0.00;0.00;0.62;0.00;0.00;0.62;3.20;2.90;;;30.70;23.70;;;;;;2228301;62;20867;-59
2023/07/08 09:33:09;0.00;0.00;0.62;0.00;0.00;0.62;3.30;2.80;;;30.70;23.80;;;;;;2228597;62;20368;-61
2023/07/08 09:35:54;0.00;0.00;0.62;0.00;0.00;0.62;3.20;2.90;;;30.70;23.80;;;;;;2228289;62;20363;-59
2023/07/08 09:38:38;0.00;0.00;0.62;0.00;0.00;0.62;3.33;3.03;;;30.70;23.80;;;;;;2228050;62;20364;-58
2023/07/08 09:41:35;0.00;0.00;0.62;0.00;0.00;0.62;3.80;3.50;;;30.70;24.40;;;;;;2228386;62;20400;-60
2023/07/08 09:44:29;0.00;0.00;0.62;0.00;0.00;0.62;3.60;3.30;;;30.70;23.80;;;;;;2228783;62;20432;-58
2023/07/08 09:47:23;0.00;0.00;0.62;0.00;0.00;0.62;3.50;3.20;;;30.70;23.80;;;;;;2228675;62;20364;-61
2023/07/08 09:50:19;0.00;0.00;0.62;0.00;0.00;0.62;3.73;3.30;;;30.70;23.80;;;;;;2227536;62;20540;-57
2023/07/08 09:53:05;0.00;0.00;0.62;0.00;0.00;0.62;3.63;3.33;;;30.70;23.80;;;;;;2228543;62;20369;-56
2023/07/08 09:55:50;0.00;0.00;0.62;0.00;0.00;0.62;3.20;2.90;;;30.70;23.80;;;;;;2225228;62;20421;-58
2023/07/08 09:58:44;0.00;0.00;0.62;0.00;0.00;0.62;3.80;3.50;;;30.70;23.80;;;;;;2227936;62;20376;-56
2023/07/08 10:01:29;0.00;0.00;0.62;0.00;0.00;0.62;3.00;2.70;;;30.80;23.90;;;;;;2228758;62;20408;-59
2023/07/08 10:04:13;0.00;0.00;0.62;0.00;0.00;0.62;3.13;2.83;;;30.70;23.80;;;;;;2228055;62;20408;-59
2023/07/08 10:07:00;0.00;0.00;0.62;0.00;0.00;0.62;3.33;3.00;;;30.80;23.90;;;;;;2228867;62;20444;-59
2023/07/08 10:09:49;0.00;0.00;0.62;0.00;0.00;0.62;3.80;3.00;;;30.80;23.90;;;;;;2228318;62;20404;-55
2023/07/08 10:12:36;0.00;0.00;0.62;0.00;0.00;0.62;3.87;2.77;;;30.80;23.90;;;;;;2227767;62;20775;-62
2023/07/08 10:15:28;0.00;0.00;0.62;0.00;0.00;0.62;3.90;2.70;;;30.80;23.90;;;;;;2228671;62;20392;-59
2023/07/08 10:18:15;0.00;0.00;0.62;0.00;0.00;0.62;3.13;2.87;;;30.80;23.90;;;;;;2228189;62;20513;-59
2023/07/08 10:21:15;0.00;0.00;0.62;0.00;0.00;0.62;3.07;2.77;;;30.80;23.90;;;;;;2228175;62;20417;-57
2023/07/08 10:24:16;0.00;0.00;0.62;0.00;0.00;0.62;3.20;2.90;;;30.80;23.90;;;;;;2228678;62;20922;-59
2023/07/08 10:27:21;0.00;0.00;0.62;0.00;0.00;0.62;3.83;3.53;;;30.80;24.00;;;;;;2227790;62;20663;-61
2023/07/08 10:30:21;0.00;0.00;0.62;0.00;0.00;0.62;2.80;2.50;;;30.90;24.00;;;;;;2228043;62;20415;-60
2023/07/08 10:33:43;0.00;0.00;0.62;0.00;0.00;0.62;3.10;2.77;;;30.90;24.00;;;;;;2228241;62;20819;-59
2023/07/08 10:36:46;0.00;0.00;0.62;0.00;0.00;0.62;3.43;2.90;;;30.90;24.00;;;;;;2228377;62;20375;-60
2023/07/08 10:39:54;0.00;0.00;0.62;0.00;0.00;0.62;3.40;2.90;;;30.90;24.00;;;;;;2228182;62;20412;-56
2023/07/08 10:42:57;0.00;0.00;0.62;0.00;0.00;0.62;2.73;2.50;;;30.90;24.00;;;;;;2227951;62;20847;-60
2023/07/08 10:46:01;0.00;0.00;0.62;0.00;0.00;0.62;3.37;3.07;;;30.90;24.00;;;;;;2228500;62;20364;-58
2023/07/08 10:49:06;0.00;0.00;0.62;0.00;0.00;0.62;3.30;3.00;;;30.90;24.10;;;;;;2227169;62;20883;-60
2023/07/08 10:52:00;0.00;0.00;0.62;0.00;0.00;0.62;3.43;3.13;;;30.90;24.60;;;;;;2228389;62;20376;-60
2023/07/08 10:55:04;0.00;0.00;0.62;0.00;0.00;0.62;3.00;2.70;;;30.90;24.00;;;;;;2228553;62;20404;-60
2023/07/08 10:58:29;0.00;0.00;0.62;0.00;0.00;0.62;3.30;2.77;;;31.00;24.10;;;;;;2228301;62;20383;-58
2023/07/08 11:01:28;0.00;0.00;0.62;0.00;0.00;0.62;3.50;2.83;;;31.00;24.10;;;;;;2228747;62;20532;-58